createdAt,value
2018-09-11T00:00:21.564Z,17.94
2018-09-11T00:01:22.817Z,17.9
2018-09-11T00:02:23.505Z,17.95
2018-09-11T00:03:23.638Z,17.97
2018-09-11T00:04:23.773Z,17.95
2018-09-11T00:05:23.905Z,17.9
2018-09-11T00:06:24.322Z,17.93
2018-09-11T00:07:24.451Z,17.95
2018-09-11T00:08:24.860Z,17.88
2018-09-11T00:09:25.277Z,17.88
2018-09-11T00:10:25.704Z,17.79
2018-09-11T00:11:26.237Z,17.8
2018-09-11T00:12:26.371Z,17.72
2018-09-11T00:13:27.057Z,17.8
2018-09-11T00:14:27.747Z,17.79
2018-09-11T00:15:27.883Z,17.73
2018-09-11T00:16:28.018Z,17.82
2018-09-11T00:17:28.707Z,17.75
2018-09-11T00:18:29.396Z,17.79
2018-09-11T00:19:29.811Z,17.8
2018-09-11T00:20:30.772Z,17.84
2018-09-11T00:21:31.477Z,17.91
2018-09-11T00:22:32.167Z,17.9
2018-09-11T00:23:32.857Z,17.87
2018-09-11T00:24:33.550Z,17.87
2018-09-11T00:25:33.962Z,17.86
2018-09-11T00:26:34.372Z,17.88
2018-09-11T00:27:34.782Z,17.88
2018-09-11T00:28:34.915Z,17.82
2018-09-11T00:29:35.328Z,17.9
2018-09-11T00:30:35.740Z,17.9
2018-09-11T00:31:36.003Z,17.91
2018-09-11T00:32:36.414Z,17.86
2018-09-11T00:33:37.102Z,17.9
2018-09-11T00:34:37.793Z,17.86
2018-09-11T00:35:38.206Z,17.91
2018-09-11T00:36:38.618Z,17.87
2018-09-11T00:37:39.304Z,17.94
2018-09-11T00:38:39.993Z,17.91
2018-09-11T00:39:40.406Z,17.9
2018-09-11T00:40:40.538Z,17.93
2018-09-11T00:41:41.798Z,17.88
2018-09-11T00:42:42.212Z,17.95
2018-09-11T00:43:42.899Z,17.97
2018-09-11T00:44:43.589Z,17.97
2018-09-11T00:45:43.724Z,17.88
2018-09-11T00:46:44.136Z,17.91
2018-09-11T00:47:44.550Z,17.93
2018-09-11T00:48:44.956Z,17.91
2018-09-11T00:49:45.643Z,17.95
2018-09-11T00:50:46.335Z,17.88
2018-09-11T00:51:47.471Z,17.88
2018-09-11T00:52:47.293Z,17.9
2018-09-11T00:53:47.702Z,17.88
2018-09-11T00:54:48.391Z,17.94
2018-09-11T00:55:48.801Z,17.9
2018-09-11T00:56:49.500Z,17.87
2018-09-11T00:57:49.912Z,17.82
2018-09-11T00:58:50.600Z,17.82
2018-09-11T00:59:51.568Z,17.82
2018-09-11T01:00:52.259Z,17.93
2018-09-11T01:01:52.516Z,17.82
2018-09-11T01:02:52.650Z,17.9
2018-09-11T01:03:52.787Z,17.88
2018-09-11T01:04:53.472Z,17.88
2018-09-11T01:05:53.878Z,17.86
2018-09-11T01:06:54.015Z,17.88
2018-09-11T01:07:54.705Z,17.86
2018-09-11T01:08:55.696Z,17.9
2018-09-11T01:09:55.829Z,17.9
2018-09-11T01:10:56.517Z,17.95
2018-09-11T01:11:57.217Z,17.95
2018-09-11T01:12:57.629Z,17.9
2018-09-11T01:13:58.038Z,17.86
2018-09-11T01:14:58.447Z,17.9
2018-09-11T01:15:59.411Z,17.91
2018-09-11T01:16:59.828Z,17.84
2018-09-11T01:18:00.237Z,17.9
2018-09-11T01:19:00.370Z,17.86
2018-09-11T01:20:01.059Z,17.82
2018-09-11T01:21:01.470Z,17.78
2018-09-11T01:22:02.169Z,17.71
2018-09-11T01:23:02.579Z,17.65
2018-09-11T01:24:03.270Z,17.6
2018-09-11T01:25:04.236Z,17.57
2018-09-11T01:26:04.646Z,17.65
2018-09-11T01:27:05.339Z,17.68
2018-09-11T01:28:05.469Z,17.6
2018-09-11T01:29:05.597Z,17.63
2018-09-11T01:30:05.728Z,17.65
2018-09-11T01:31:06.140Z,17.5
2018-09-11T01:32:06.394Z,17.54
2018-09-11T01:33:06.805Z,17.52
2018-09-11T01:34:07.497Z,17.56
2018-09-11T01:35:08.467Z,17.6
2018-09-11T01:36:08.596Z,17.49
2018-09-11T01:37:08.726Z,17.56
2018-09-11T01:38:09.142Z,17.47
2018-09-11T01:39:09.824Z,17.57
2018-09-11T01:40:09.958Z,17.5
2018-09-11T01:41:10.091Z,17.52
2018-09-11T01:42:10.792Z,17.53
2018-09-11T01:43:11.480Z,17.57
2018-09-11T01:44:11.890Z,17.59
2018-09-11T01:45:12.300Z,17.52
2018-09-11T01:46:12.989Z,17.53
2018-09-11T01:47:13.676Z,17.53
2018-09-11T01:48:13.808Z,17.5
2018-09-11T01:49:14.794Z,17.53
2018-09-11T01:50:15.482Z,17.54
2018-09-11T01:51:15.891Z,17.59
2018-09-11T01:52:16.591Z,17.49
2018-09-11T01:53:17.278Z,17.56
2018-09-11T01:54:17.965Z,17.56
2018-09-11T01:55:18.099Z,17.49
2018-09-11T01:56:18.508Z,17.52
2018-09-11T01:57:18.640Z,17.53
2018-09-11T01:58:18.771Z,17.57
2018-09-11T01:59:18.907Z,17.54
2018-09-11T02:00:19.317Z,17.59
2018-09-11T02:01:19.450Z,17.5
2018-09-11T02:02:20.429Z,17.53
2018-09-11T02:03:21.118Z,17.57
2018-09-11T02:04:21.249Z,17.47
2018-09-11T02:05:21.380Z,17.47
2018-09-11T02:06:21.788Z,17.52
2018-09-11T02:07:22.202Z,17.42
2018-09-11T02:08:22.337Z,17.44
2018-09-11T02:09:22.745Z,17.41
2018-09-11T02:10:23.432Z,17.35
2018-09-11T02:11:23.844Z,17.38
2018-09-11T02:12:23.823Z,17.31
2018-09-11T02:13:24.237Z,17.38
2018-09-11T02:14:24.705Z,17.44
2018-09-11T02:15:25.057Z,17.41
2018-09-11T02:16:25.468Z,17.44
2018-09-11T02:17:25.875Z,17.39
2018-09-11T02:18:26.009Z,17.39
2018-09-11T02:19:26.697Z,17.39
2018-09-11T02:20:26.827Z,17.38
2018-09-11T02:21:26.962Z,17.31
2018-09-11T02:22:27.663Z,17.19
2018-09-11T02:23:27.796Z,17.22
2018-09-11T02:24:28.206Z,17.19
2018-09-11T02:25:28.628Z,17.22
2018-09-11T02:26:29.323Z,17.2
2018-09-11T02:27:29.455Z,17.19
2018-09-11T02:28:30.144Z,17.27
2018-09-11T02:29:30.275Z,17.07
2018-09-11T02:30:30.686Z,17.13
2018-09-11T02:31:31.371Z,17.1
2018-09-11T02:32:31.910Z,17.22
2018-09-11T02:33:32.041Z,17.09
2018-09-11T02:34:32.453Z,17.24
2018-09-11T02:35:32.903Z,17.23
2018-09-11T02:36:33.179Z,17.22
2018-09-11T02:37:33.592Z,17.3
2018-09-11T02:38:34.008Z,17.22
2018-09-11T02:39:34.417Z,17.23
2018-09-11T02:40:35.381Z,17.2
2018-09-11T02:41:36.625Z,17.2
2018-09-11T02:42:37.437Z,17.16
2018-09-11T02:43:37.847Z,17.13
2018-09-11T02:44:38.536Z,17.22
2018-09-11T02:45:38.950Z,17.22
2018-09-11T02:46:39.358Z,17.22
2018-09-11T02:47:39.773Z,17.23
2018-09-11T02:48:40.734Z,17.34
2018-09-11T02:49:41.424Z,17.32
2018-09-11T02:50:42.392Z,17.31
2018-09-11T02:51:42.802Z,17.34
2018-09-11T02:52:43.619Z,17.35
2018-09-11T02:53:44.302Z,17.34
2018-09-11T02:54:44.436Z,17.38
2018-09-11T02:55:45.124Z,17.39
2018-09-11T02:56:45.256Z,17.35
2018-09-11T02:57:45.944Z,17.37
2018-09-11T02:58:46.353Z,17.39
2018-09-11T02:59:46.763Z,17.37
2018-09-11T03:00:46.894Z,17.39
2018-09-11T03:01:47.304Z,17.37
2018-09-11T03:02:47.841Z,17.39
2018-09-11T03:03:48.809Z,17.42
2018-09-11T03:04:49.773Z,17.37
2018-09-11T03:05:49.904Z,17.46
2018-09-11T03:06:50.314Z,17.47
2018-09-11T03:07:50.446Z,17.49
2018-09-11T03:08:50.855Z,17.44
2018-09-11T03:09:51.823Z,17.46
2018-09-11T03:10:52.233Z,17.46
2018-09-11T03:11:52.921Z,17.41
2018-09-11T03:12:53.733Z,17.47
2018-09-11T03:13:53.868Z,17.44
2018-09-11T03:14:54.550Z,17.5
2018-09-11T03:15:55.238Z,17.5
2018-09-11T03:16:55.650Z,17.52
2018-09-11T03:17:56.336Z,17.47
2018-09-11T03:18:56.793Z,17.44
2018-09-11T03:19:57.549Z,17.41
2018-09-11T03:20:58.509Z,17.38
2018-09-11T03:21:58.939Z,17.34
2018-09-11T03:22:59.184Z,17.39
2018-09-11T03:23:59.869Z,17.34
2018-09-11T03:25:00.833Z,17.38
2018-09-11T03:26:01.246Z,17.35
2018-09-11T03:27:01.932Z,17.34
2018-09-11T03:28:02.636Z,17.34
2018-09-11T03:29:03.049Z,17.35
2018-09-11T03:30:04.016Z,17.28
2018-09-11T03:31:04.981Z,17.32
2018-09-11T03:32:05.393Z,17.38
2018-09-11T03:33:05.655Z,17.28
2018-09-11T03:34:06.344Z,17.31
2018-09-11T03:35:06.478Z,17.37
2018-09-11T03:36:06.606Z,17.37
2018-09-11T03:37:07.025Z,17.37
2018-09-11T03:38:08.270Z,17.34
2018-09-11T03:39:08.677Z,17.32
2018-09-11T03:40:08.808Z,17.31
2018-09-11T03:41:09.494Z,17.19
2018-09-11T03:42:10.183Z,17.07
2018-09-11T03:43:11.163Z,17.09
2018-09-11T03:44:12.405Z,17.09
2018-09-11T03:45:11.863Z,17.05
2018-09-11T03:46:11.992Z,17.05
2018-09-11T03:47:12.959Z,17.05
2018-09-11T03:48:13.928Z,17.09
2018-09-11T03:49:14.895Z,17.02
2018-09-11T03:50:14.868Z,16.97
2018-09-11T03:51:15.555Z,16.98
2018-09-11T03:52:15.964Z,16.95
2018-09-11T03:53:16.221Z,16.89
2018-09-11T03:54:16.351Z,16.99
2018-09-11T03:55:16.766Z,16.95
2018-09-11T03:56:17.449Z,16.98
2018-09-11T03:57:17.584Z,16.95
2018-09-11T03:58:17.996Z,16.86
2018-09-11T03:59:18.896Z,16.95
2018-09-11T04:00:19.590Z,16.89
2018-09-11T04:01:20.280Z,16.91
2018-09-11T04:02:20.686Z,16.92
2018-09-11T04:03:21.385Z,16.95
2018-09-11T04:04:22.075Z,16.95
2018-09-11T04:05:22.898Z,16.87
2018-09-11T04:06:22.957Z,16.79
2018-09-11T04:07:23.638Z,16.8
2018-09-11T04:08:24.604Z,16.79
2018-09-11T04:09:24.736Z,16.8
2018-09-11T04:10:25.146Z,16.83
2018-09-11T04:11:25.836Z,16.83
2018-09-11T04:12:26.247Z,16.8
2018-09-11T04:13:26.796Z,16.83
2018-09-11T04:14:26.930Z,16.74
2018-09-11T04:15:27.064Z,16.82
2018-09-11T04:16:27.750Z,16.76
2018-09-11T04:17:28.161Z,16.68
2018-09-11T04:18:28.572Z,16.64
2018-09-11T04:19:29.262Z,16.72
2018-09-11T04:20:29.995Z,16.66
2018-09-11T04:21:30.403Z,16.73
2018-09-11T04:22:31.382Z,16.62
2018-09-11T04:23:31.423Z,16.66
2018-09-11T04:24:31.835Z,16.61
2018-09-11T04:25:32.649Z,16.64
2018-09-11T04:26:32.641Z,16.58
2018-09-11T04:27:33.049Z,16.64
2018-09-11T04:28:33.734Z,16.64
2018-09-11T04:29:34.145Z,16.57
2018-09-11T04:30:34.837Z,16.68
2018-09-11T04:31:35.521Z,16.68
2018-09-11T04:32:35.649Z,16.69
2018-09-11T04:33:36.914Z,16.69
2018-09-11T04:34:37.327Z,16.77
2018-09-11T04:35:38.012Z,16.69
2018-09-11T04:36:38.699Z,16.65
2018-09-11T04:37:39.943Z,16.69
2018-09-11T04:38:42.050Z,16.69
2018-09-11T04:39:40.013Z,16.68
2018-09-11T04:40:40.147Z,16.64
2018-09-11T04:41:41.008Z,16.74
2018-09-11T04:42:41.639Z,16.76
2018-09-11T04:43:42.914Z,16.73
2018-09-11T04:44:44.715Z,16.79
2018-09-11T04:45:44.549Z,16.73
2018-09-11T04:46:43.803Z,16.74
2018-09-11T04:47:46.781Z,16.74
2018-09-11T04:48:45.442Z,16.72
2018-09-11T04:49:45.574Z,16.72
2018-09-11T04:50:45.984Z,16.64
2018-09-11T04:51:46.393Z,16.68
2018-09-11T04:52:47.088Z,16.57
2018-09-11T04:53:47.634Z,16.65
2018-09-11T04:54:48.619Z,16.65
2018-09-11T04:55:49.309Z,16.68
2018-09-11T04:56:49.993Z,16.62
2018-09-11T04:57:50.125Z,16.61
2018-09-11T04:58:51.363Z,16.64
2018-09-11T04:59:51.496Z,16.64
2018-09-11T05:00:52.186Z,16.58
2018-09-11T05:01:52.879Z,16.62
2018-09-11T05:02:53.891Z,16.51
2018-09-11T05:03:54.877Z,16.62
2018-09-11T05:04:55.287Z,16.57
2018-09-11T05:05:55.711Z,16.58
2018-09-11T05:06:56.120Z,16.61
2018-09-11T05:07:57.086Z,16.55
2018-09-11T05:08:57.501Z,16.58
2018-09-11T05:09:58.155Z,16.61
2018-09-11T05:10:59.337Z,16.59
2018-09-11T05:11:59.080Z,16.64
2018-09-11T05:12:59.489Z,16.51
2018-09-11T05:14:00.476Z,16.58
2018-09-11T05:15:01.449Z,16.64
2018-09-11T05:16:01.850Z,16.59
2018-09-11T05:17:02.268Z,16.66
2018-09-11T05:18:02.404Z,16.59
2018-09-11T05:19:03.236Z,16.68
2018-09-11T05:20:03.271Z,16.65
2018-09-11T05:21:03.407Z,16.65
2018-09-11T05:22:04.106Z,16.74
2018-09-11T05:23:04.518Z,16.64
2018-09-11T05:24:04.500Z,16.69
2018-09-11T05:25:04.640Z,16.74
2018-09-11T05:26:05.332Z,16.72
2018-09-11T05:27:06.028Z,16.79
2018-09-11T05:28:06.438Z,16.79
2018-09-11T05:29:07.143Z,16.77
2018-09-11T05:30:07.561Z,16.82
2018-09-11T05:31:07.697Z,16.8
2018-09-11T05:32:08.111Z,16.87
2018-09-11T05:33:08.525Z,16.8
2018-09-11T05:34:09.782Z,16.79
2018-09-11T05:35:10.192Z,16.82
2018-09-11T05:36:10.606Z,16.77
2018-09-11T05:37:11.020Z,16.91
2018-09-11T05:38:11.432Z,16.89
2018-09-11T05:39:12.089Z,16.99
2018-09-11T05:40:14.484Z,17.02
2018-09-11T05:41:12.939Z,16.98
2018-09-11T05:42:13.351Z,16.99
2018-09-11T05:43:13.487Z,17.07
2018-09-11T05:44:14.745Z,17.09
2018-09-11T05:45:15.435Z,17.13
2018-09-11T05:46:15.854Z,17.22
2018-09-11T05:47:17.167Z,17.23
2018-09-11T05:48:16.991Z,17.22
2018-09-11T05:49:17.405Z,17.19
2018-09-11T05:50:17.540Z,17.35
2018-09-11T05:51:18.001Z,17.41
2018-09-11T05:52:18.414Z,17.42
2018-09-11T05:53:18.551Z,17.37
2018-09-11T05:54:19.565Z,17.44
2018-09-11T05:55:19.771Z,17.53
2018-09-11T05:56:20.461Z,17.52
2018-09-11T05:57:21.151Z,17.52
2018-09-11T05:58:21.597Z,17.71
2018-09-11T05:59:22.631Z,17.73
2018-09-11T06:00:23.047Z,17.75
2018-09-11T06:01:23.461Z,17.8
2018-09-11T06:02:23.878Z,17.79
2018-09-11T06:03:24.576Z,17.87
2018-09-11T06:04:24.559Z,17.88
2018-09-11T06:05:27.574Z,17.84
2018-09-11T06:06:25.852Z,17.9
2018-09-11T06:07:26.553Z,17.97
2018-09-11T06:08:26.691Z,17.93
2018-09-11T06:09:27.615Z,18.05
2018-09-11T06:10:28.032Z,18
2018-09-11T06:11:28.542Z,18.19
2018-09-11T06:12:28.339Z,18.13
2018-09-11T06:13:29.309Z,18.27
2018-09-11T06:14:29.300Z,18.33
2018-09-11T06:15:29.440Z,18.41
2018-09-11T06:16:29.857Z,18.63
2018-09-11T06:17:30.000Z,18.85
2018-09-11T06:18:30.697Z,19.08
2018-09-11T06:19:31.114Z,19.37
2018-09-11T06:20:31.811Z,19.64
2018-09-11T06:21:32.227Z,19.96
2018-09-11T06:22:32.923Z,20.19
2018-09-11T06:23:33.343Z,20.67
2018-09-11T06:24:34.051Z,20.89
2018-09-11T06:25:34.818Z,21.2
2018-09-11T06:26:35.178Z,21.3
2018-09-11T06:27:35.335Z,21.53
2018-09-11T06:28:35.757Z,21.56
2018-09-11T06:29:36.174Z,21.83
2018-09-11T06:30:36.317Z,21.91
2018-09-11T06:31:37.293Z,22.12
2018-09-11T06:32:38.273Z,22.26
2018-09-11T06:33:38.692Z,22.31
2018-09-11T06:34:39.243Z,22.49
2018-09-11T06:35:39.659Z,22.49
2018-09-11T06:36:40.084Z,22.59
2018-09-11T06:37:40.425Z,22.61
2018-09-11T06:38:40.864Z,22.46
2018-09-11T06:39:41.007Z,22.43
2018-09-11T06:40:41.426Z,22.46
2018-09-11T06:41:41.566Z,22.53
2018-09-11T06:42:41.985Z,22.56
2018-09-11T06:43:42.405Z,22.62
2018-09-11T06:44:43.579Z,22.59
2018-09-11T06:45:46.442Z,22.52
2018-09-11T06:46:44.156Z,22.47
2018-09-11T06:47:44.573Z,22.34
2018-09-11T06:48:44.711Z,22.43
2018-09-11T06:49:45.126Z,22.43
2018-09-11T06:50:45.824Z,22.33
2018-09-11T06:51:46.242Z,22.43
2018-09-11T06:52:46.658Z,22.18
2018-09-11T06:53:47.075Z,22.1
2018-09-11T06:54:48.094Z,22.07
2018-09-11T06:55:48.875Z,22.04
2018-09-11T06:56:49.567Z,21.85
2018-09-11T06:57:49.705Z,21.85
2018-09-11T06:58:50.746Z,21.85
2018-09-11T06:59:50.216Z,21.81
2018-09-11T07:00:50.914Z,21.68
2018-09-11T07:01:51.837Z,21.62
2018-09-11T07:02:54.333Z,21.69
2018-09-11T07:03:52.713Z,21.59
2018-09-11T07:04:52.985Z,21.53
2018-09-11T07:05:55.725Z,21.62
2018-09-11T07:06:54.054Z,21.69
2018-09-11T07:07:54.476Z,21.66
2018-09-11T07:08:55.168Z,21.88
2018-09-11T07:09:56.192Z,22.15
2018-09-11T07:10:55.649Z,22.34
2018-09-11T07:11:55.785Z,22.46
2018-09-11T07:12:56.484Z,22.59
2018-09-11T07:13:56.617Z,22.63
2018-09-11T07:14:57.607Z,22.55
2018-09-11T07:15:58.307Z,22.61
2018-09-11T07:16:58.447Z,22.61
2018-09-11T07:17:58.588Z,22.51
2018-09-11T07:18:59.285Z,22.65
2018-09-11T07:19:59.606Z,22.37
2018-09-11T07:20:59.605Z,22.43
2018-09-11T07:22:00.021Z,22.56
2018-09-11T07:23:00.440Z,22.62
2018-09-11T07:24:01.136Z,22.67
2018-09-11T07:25:01.970Z,22.63
2018-09-11T07:26:02.734Z,22.59
2018-09-11T07:27:03.210Z,22.49
2018-09-11T07:28:03.629Z,22.38
2018-09-11T07:29:04.324Z,22.3
2018-09-11T07:30:05.024Z,22.37
2018-09-11T07:31:05.447Z,22.38
2018-09-11T07:32:06.157Z,22.31
2018-09-11T07:33:06.293Z,22.44
2018-09-11T07:34:08.421Z,22.36
2018-09-11T07:35:07.697Z,22.25
2018-09-11T07:36:08.113Z,22.31
2018-09-11T07:37:08.537Z,22.33
2018-09-11T07:38:08.671Z,22.52
2018-09-11T07:39:09.088Z,22.46
2018-09-11T07:40:09.228Z,22.36
2018-09-11T07:41:09.369Z,22.25
2018-09-11T07:42:09.785Z,22.26
2018-09-11T07:43:09.925Z,22.26
2018-09-11T07:44:10.344Z,22.28
2018-09-11T07:45:11.330Z,22.41
2018-09-11T07:46:11.750Z,22.28
2018-09-11T07:47:12.168Z,22.41
2018-09-11T07:48:12.585Z,22.33
2018-09-11T07:49:13.003Z,22.37
2018-09-11T07:50:13.423Z,22.43
2018-09-11T07:51:13.845Z,22.34
2018-09-11T07:52:14.267Z,22.38
2018-09-11T07:53:14.407Z,22.38
2018-09-11T07:54:14.821Z,22.26
2018-09-11T07:55:16.085Z,22.3
2018-09-11T07:56:15.785Z,22.25
2018-09-11T07:57:16.481Z,22.26
2018-09-11T07:58:16.898Z,22.4
2018-09-11T07:59:17.318Z,22.36
2018-09-11T08:00:17.737Z,22.26
2018-09-11T08:01:18.152Z,22.28
2018-09-11T08:02:18.858Z,22.4
2018-09-11T08:03:19.277Z,22.46
2018-09-11T08:04:19.975Z,22.43
2018-09-11T08:05:21.186Z,22.51
2018-09-11T08:06:21.075Z,22.51
2018-09-11T08:07:21.493Z,22.61
2018-09-11T08:08:21.912Z,22.61
2018-09-11T08:09:22.389Z,22.53
2018-09-11T08:10:22.751Z,22.61
2018-09-11T08:11:24.003Z,22.47
2018-09-11T08:12:23.698Z,22.52
2018-09-11T08:13:23.839Z,22.52
2018-09-11T08:14:24.541Z,22.63
2018-09-11T08:15:25.082Z,22.65
2018-09-11T08:16:25.871Z,22.55
2018-09-11T08:17:26.398Z,22.63
2018-09-11T08:18:26.542Z,22.53
2018-09-11T08:19:26.681Z,22.58
2018-09-11T08:20:26.821Z,22.51
2018-09-11T08:21:26.960Z,22.58
2018-09-11T08:22:27.376Z,22.52
2018-09-11T08:23:28.075Z,22.62
2018-09-11T08:24:28.493Z,22.65
2018-09-11T08:25:29.208Z,22.56
2018-09-11T08:26:29.629Z,22.59
2018-09-11T08:27:30.048Z,22.7
2018-09-11T08:28:30.467Z,22.67
2018-09-11T08:29:31.435Z,22.73
2018-09-11T08:30:30.938Z,22.71
2018-09-11T08:31:31.361Z,22.8
2018-09-11T08:32:32.056Z,22.84
2018-09-11T08:33:32.477Z,22.89
2018-09-11T08:34:33.168Z,22.95
2018-09-11T08:35:33.435Z,22.93
2018-09-11T08:36:33.853Z,22.92
2018-09-11T08:37:33.992Z,22.95
2018-09-11T08:38:34.414Z,22.91
2018-09-11T08:39:34.836Z,22.99
2018-09-11T08:40:35.526Z,22.93
2018-09-11T08:41:35.943Z,22.95
2018-09-11T08:42:36.363Z,23.06
2018-09-11T08:43:37.061Z,22.99
2018-09-11T08:44:38.034Z,23.07
2018-09-11T08:45:39.019Z,23.14
2018-09-11T08:46:39.892Z,23.26
2018-09-11T08:47:39.936Z,23.2
2018-09-11T08:48:40.628Z,23.11
2018-09-11T08:49:41.053Z,23.33
2018-09-11T08:50:41.471Z,23.29
2018-09-11T08:51:41.888Z,23.21
2018-09-11T08:52:42.056Z,23.16
2018-09-11T08:53:42.508Z,23.18
2018-09-11T08:54:42.926Z,23.33
2018-09-11T08:55:43.775Z,23.42
2018-09-11T08:56:44.196Z,23.45
2018-09-11T08:57:44.337Z,23.48
2018-09-11T08:58:45.320Z,23.44
2018-09-11T08:59:45.467Z,23.42
2018-09-11T09:00:46.726Z,23.47
2018-09-11T09:01:46.867Z,23.51
2018-09-11T09:02:47.287Z,23.48
2018-09-11T09:03:47.704Z,23.58
2018-09-11T09:04:48.398Z,23.63
2018-09-11T09:05:49.386Z,23.69
2018-09-11T09:06:49.802Z,23.7
2018-09-11T09:07:50.500Z,23.73
2018-09-11T09:08:50.917Z,23.69
2018-09-11T09:09:51.078Z,23.63
2018-09-11T09:10:51.356Z,23.76
2018-09-11T09:11:52.054Z,23.91
2018-09-11T09:12:52.754Z,24
2018-09-11T09:13:53.172Z,24.07
2018-09-11T09:14:53.598Z,24.18
2018-09-11T09:15:54.867Z,24.61
2018-09-11T09:16:55.842Z,24.53
2018-09-11T09:17:55.985Z,24.75
2018-09-11T09:18:56.960Z,24.34
2018-09-11T09:19:57.216Z,24.66
2018-09-11T09:20:58.092Z,24.99
2018-09-11T09:21:58.270Z,25.12
2018-09-11T09:22:58.413Z,25.26
2018-09-11T09:23:58.834Z,25.25
2018-09-11T09:24:59.256Z,25.09
2018-09-11T09:26:00.523Z,25.16
2018-09-11T09:27:01.373Z,25.19
2018-09-11T09:28:01.399Z,25.09
2018-09-11T09:29:01.661Z,25.15
2018-09-11T09:30:02.082Z,25.15
2018-09-11T09:31:02.508Z,25.15
2018-09-11T09:32:03.212Z,25.09
2018-09-11T09:33:03.355Z,25.03
2018-09-11T09:34:03.776Z,24.94
2018-09-11T09:35:04.202Z,25.03
2018-09-11T09:36:04.911Z,25.01
2018-09-11T09:37:05.948Z,24.94
2018-09-11T09:38:05.801Z,24.99
2018-09-11T09:39:06.497Z,25.01
2018-09-11T09:40:06.635Z,25.01
2018-09-11T09:41:06.783Z,25.15
2018-09-11T09:42:07.206Z,25.15
2018-09-11T09:43:07.348Z,25.14
2018-09-11T09:44:08.669Z,25.16
2018-09-11T09:45:08.163Z,25.24
2018-09-11T09:46:08.706Z,25.46
2018-09-11T09:47:09.126Z,25.7
2018-09-11T09:48:09.269Z,25.89
2018-09-11T09:49:09.972Z,25.93
2018-09-11T09:50:10.945Z,25.76
2018-09-11T09:51:11.643Z,25.8
2018-09-11T09:52:12.061Z,25.74
2018-09-11T09:53:12.760Z,25.83
2018-09-11T09:54:12.906Z,25.83
2018-09-11T09:55:13.050Z,26.04
2018-09-11T09:56:13.599Z,26.04
2018-09-11T09:57:13.736Z,26.06
2018-09-11T09:58:14.992Z,26.04
2018-09-11T09:59:15.413Z,25.96
2018-09-11T10:00:15.836Z,26.1
2018-09-11T10:01:16.093Z,26.1
2018-09-11T10:02:16.237Z,26.11
2018-09-11T10:03:16.507Z,26.26
2018-09-11T10:04:16.410Z,26.55
2018-09-11T10:05:16.834Z,26.93
2018-09-11T10:06:18.107Z,27.25
2018-09-11T10:07:18.806Z,27.5
2018-09-11T10:08:19.341Z,27.97
2018-09-11T10:09:19.382Z,28.1
2018-09-11T10:10:19.804Z,28.4
2018-09-11T10:11:20.785Z,28.49
2018-09-11T10:12:20.782Z,28.71
2018-09-11T10:13:21.503Z,28.9
2018-09-11T10:14:24.427Z,28.94
2018-09-11T10:15:22.208Z,29.07
2018-09-11T10:16:22.475Z,28.97
2018-09-11T10:17:22.638Z,29.13
2018-09-11T10:18:22.792Z,29.21
2018-09-11T10:19:23.214Z,29.3
2018-09-11T10:20:23.363Z,29.32
2018-09-11T10:21:24.412Z,29.4
2018-09-11T10:22:24.626Z,29.44
2018-09-11T10:23:25.102Z,29.22
2018-09-11T10:24:25.887Z,29.03
2018-09-11T10:25:26.228Z,28.86
2018-09-11T10:26:26.359Z,28.65
2018-09-11T10:27:27.217Z,28.37
2018-09-11T10:28:27.057Z,28.47
2018-09-11T10:29:27.388Z,28.68
2018-09-11T10:30:28.169Z,29
2018-09-11T10:31:28.592Z,29.12
2018-09-11T10:32:29.015Z,29.5
2018-09-11T10:33:29.649Z,29.9
2018-09-11T10:34:29.671Z,30.16
2018-09-11T10:35:29.823Z,30.44
2018-09-11T10:36:30.818Z,30.7
2018-09-11T10:37:31.244Z,30.91
2018-09-11T10:38:31.396Z,31.07
2018-09-11T10:39:32.084Z,31.26
2018-09-11T10:40:32.259Z,31.52
2018-09-11T10:41:32.963Z,31.42
2018-09-11T10:42:33.392Z,31.15
2018-09-11T10:43:34.101Z,31.13
2018-09-11T10:44:34.525Z,31.33
2018-09-11T10:45:34.955Z,31.3
2018-09-11T10:46:34.951Z,31.41
2018-09-11T10:47:35.101Z,31.48
2018-09-11T10:48:35.254Z,31.52
2018-09-11T10:49:36.002Z,31.79
2018-09-11T10:50:36.425Z,31.81
2018-09-11T10:51:36.583Z,31.82
2018-09-11T10:52:37.010Z,32
2018-09-11T10:53:37.440Z,32.05
2018-09-11T10:54:38.423Z,32
2018-09-11T10:55:38.853Z,32.04
2018-09-11T10:56:39.586Z,32.12
2018-09-11T10:57:40.292Z,32.26
2018-09-11T10:58:40.998Z,32.15
2018-09-11T10:59:41.536Z,32
2018-09-11T11:00:42.401Z,32.09
2018-09-11T11:01:43.191Z,32.12
2018-09-11T11:02:43.701Z,32.19
2018-09-11T11:03:44.141Z,32.31
2018-09-11T11:04:44.582Z,32.2
2018-09-11T11:05:45.004Z,32.11
2018-09-11T11:06:45.281Z,32.26
2018-09-11T11:07:45.990Z,32.24
2018-09-11T11:08:46.143Z,32.29
2018-09-11T11:09:46.852Z,32.17
2018-09-11T11:10:47.444Z,32.05
2018-09-11T11:11:47.922Z,31.93
2018-09-11T11:12:48.401Z,32
2018-09-11T11:13:49.130Z,32.12
2018-09-11T11:14:49.817Z,32.07
2018-09-11T11:15:50.817Z,32.08
2018-09-11T11:16:51.440Z,32.05
2018-09-11T11:17:51.447Z,32
2018-09-11T11:18:51.210Z,31.9
2018-09-11T11:19:51.729Z,31.86
2018-09-11T11:20:54.183Z,31.6
2018-09-11T11:21:53.731Z,31.7
2018-09-11T11:22:54.669Z,31.62
2018-09-11T11:23:54.334Z,31.39
2018-09-11T11:24:56.943Z,31.5
2018-09-11T11:25:55.030Z,31.42
2018-09-11T11:26:56.366Z,31.51
2018-09-11T11:27:56.386Z,31.54
2018-09-11T11:28:56.813Z,31.42
2018-09-11T11:29:56.965Z,31.35
2018-09-11T11:30:57.396Z,31.26
2018-09-11T11:31:57.827Z,31.18
2018-09-11T11:32:58.811Z,31.15
2018-09-11T11:33:58.965Z,31.02
2018-09-11T11:35:00.229Z,30.98
2018-09-11T11:36:00.996Z,30.95
2018-09-11T11:37:01.209Z,30.96
2018-09-11T11:38:01.142Z,30.88
2018-09-11T11:39:01.573Z,30.69
2018-09-11T11:40:01.727Z,30.74
2018-09-11T11:41:02.575Z,30.65
2018-09-11T11:42:02.878Z,30.23
2018-09-11T11:43:03.315Z,30.38
2018-09-11T11:44:03.743Z,30.43
2018-09-11T11:45:03.896Z,30.27
2018-09-11T11:46:04.083Z,30.52
2018-09-11T11:47:04.135Z,30.44
2018-09-11T11:48:07.090Z,30.46
2018-09-11T11:49:05.523Z,30.46
2018-09-11T11:50:05.950Z,30.43
2018-09-11T11:51:06.663Z,30.29
2018-09-11T11:52:06.813Z,30.23
2018-09-11T11:53:06.963Z,30.33
2018-09-11T11:54:07.394Z,30.23
2018-09-11T11:55:08.757Z,30.24
2018-09-11T11:56:08.327Z,30.39
2018-09-11T11:57:08.324Z,30.39
2018-09-11T11:58:09.035Z,30.39
2018-09-11T11:59:09.501Z,30.43
2018-09-11T12:00:12.050Z,30.4
2018-09-11T12:01:10.162Z,30.38
2018-09-11T12:02:11.167Z,30.35
2018-09-11T12:03:13.460Z,30.43
2018-09-11T12:04:14.503Z,30.43
2018-09-11T12:05:13.979Z,30.4
2018-09-11T12:06:13.786Z,30.23
2018-09-11T12:07:15.178Z,30.2
2018-09-11T12:08:15.975Z,30.11
2018-09-11T12:09:16.069Z,30.02
2018-09-11T12:10:17.374Z,29.94
2018-09-11T12:11:15.604Z,30.01
2018-09-11T12:12:16.585Z,29.94
2018-09-11T12:13:16.734Z,30.05
2018-09-11T12:14:17.163Z,30.02
2018-09-11T12:15:17.869Z,29.98
2018-09-11T12:16:19.236Z,30.03
2018-09-11T12:17:18.933Z,30.16
2018-09-11T12:18:19.511Z,30.21
2018-09-11T12:19:20.396Z,30.14
2018-09-11T12:20:20.821Z,30.06
2018-09-11T12:21:20.973Z,30.08
2018-09-11T12:22:21.131Z,30.1
2018-09-11T12:23:21.557Z,30.27
2018-09-11T12:24:21.989Z,30.32
2018-09-11T12:25:22.180Z,30.29
2018-09-11T12:26:23.971Z,30.44
2018-09-11T12:27:23.990Z,30.46
2018-09-11T12:28:24.385Z,30.52
2018-09-11T12:29:24.538Z,30.62
2018-09-11T12:30:24.968Z,30.62
2018-09-11T12:31:25.117Z,30.65
2018-09-11T12:32:25.547Z,30.63
2018-09-11T12:33:25.696Z,30.51
2018-09-11T12:34:26.118Z,30.52
2018-09-11T12:35:27.484Z,30.43
2018-09-11T12:36:29.056Z,30.44
2018-09-11T12:37:29.488Z,30.33
2018-09-11T12:38:30.045Z,30.43
2018-09-11T12:39:30.711Z,30.52
2018-09-11T12:40:29.126Z,30.54
2018-09-11T12:41:30.605Z,30.59
2018-09-11T12:42:31.092Z,30.71
2018-09-11T12:43:30.614Z,30.78
2018-09-11T12:44:30.958Z,30.7
2018-09-11T12:45:31.242Z,30.69
2018-09-11T12:46:31.981Z,30.65
2018-09-11T12:47:33.915Z,30.63
2018-09-11T12:48:33.813Z,30.67
2018-09-11T12:49:33.449Z,30.55
2018-09-11T12:50:33.676Z,30.65
2018-09-11T12:51:33.835Z,30.73
2018-09-11T12:52:34.527Z,30.74
2018-09-11T12:53:34.808Z,30.77
2018-09-11T12:54:37.221Z,30.8
2018-09-11T12:55:35.734Z,30.91
2018-09-11T12:56:37.210Z,30.78
2018-09-11T12:57:37.019Z,30.8
2018-09-11T12:58:36.776Z,30.81
2018-09-11T12:59:37.209Z,30.74
2018-09-11T13:00:37.913Z,30.77
2018-09-11T13:01:40.440Z,30.55